Time;durP1;ratioP1;P1;durP2;ratioP2;P2;SDS_P1;SDS_P2;PMS_P1;PMS_P2;Temp;Humidity;BMP_temperature;BMP_pressure;BME280_temperature;BME280_humidity;BME280_pressure;Samples;Min_cycle;Max_cycle;Signal;HPM_P1;HPM_P2
2022/06/03 00:01:10;;;;;;;;;;;;;;;-142.75;100.00;77548.75;5015307;28;20287;-68
2022/06/03 00:03:50;;;;;;;;;;;;;;;-142.75;100.00;77546.78;5013872;28;19917;-69
2022/06/03 00:06:34;;;;;;;;;;;;;;;-142.75;100.00;77548.75;5013748;28;19968;-68
2022/06/03 00:09:02;;;;;;;;;;;;;;;-142.75;100.00;77548.75;4995684;28;19926;-68
2022/06/03 00:11:37;;;;;;;;;;;;;;;-142.75;100.00;77546.78;5012232;28;20386;-68
2022/06/03 00:14:20;;;;;;;;;;;;;;;-142.75;100.00;77542.84;5028624;28;19924;-70
2022/06/03 00:16:46;;;;;;;;;;;;;;;-142.75;100.00;77554.66;5015573;28;20286;-68
2022/06/03 00:19:11;;;;;;;;;;;;;;;-142.75;100.00;77558.59;5031978;28;19921;-68
2022/06/03 00:24:04;;;;;;;;;;;;;;;-142.75;100.00;77548.75;5052031;23;20395;-68
2022/06/03 00:26:47;;;;;;;;;;;;;;;-142.75;100.00;77552.69;5031609;28;19965;-68
2022/06/03 00:29:12;;;;;;;;;;;;;;;-142.75;100.00;77552.69;5049910;28;20078;-69
2022/06/03 00:31:56;;;;;;;;;;;;;;;-142.75;100.00;77554.66;5052654;28;20425;-68
2022/06/03 00:34:30;;;;;;;;;;;;;;;-142.75;100.00;77550.72;5052440;28;19956;-68
2022/06/03 00:36:56;;;;;;;;;;;;;;;-142.75;100.00;77558.59;5031517;28;19917;-69
2022/06/03 00:39:21;;;;;;;;;;;;;;;-142.75;100.00;77554.66;5032407;28;19928;-69
2022/06/03 00:42:09;;;;;;;;;;;;;;;-142.75;100.00;77566.47;5032397;28;20011;-69
2022/06/03 00:44:50;;;;;;;;;;;;;;;-142.75;100.00;77552.69;5032140;28;20333;-69
2022/06/03 00:47:22;;;;;;;;;;;;;;;-142.75;100.00;77560.56;5032537;28;19960;-69
2022/06/03 00:49:47;;;;;;;;;;;;;;;-142.75;100.00;77560.56;5030856;28;19932;-68
2022/06/03 00:52:29;;;;;;;;;;;;;;;-142.75;100.00;77554.66;5032327;28;19979;-68
2022/06/03 00:54:54;;;;;;;;;;;;;;;-142.75;100.00;77550.72;5031184;28;19943;-68
2022/06/03 00:57:22;;;;;;;;;;;;;;;-142.75;100.00;77554.66;5032195;28;19920;-68
2022/06/03 01:00:08;;;;;;;;;;;;;;;-142.75;100.00;77558.59;5031992;28;19917;-69
2022/06/03 01:02:55;;;;;;;;;;;;;;;-142.75;100.00;77552.69;5032120;28;19917;-68
2022/06/03 01:05:39;;;;;;;;;;;;;;;-142.75;100.00;77550.72;5032242;28;19917;-68
2022/06/03 01:08:05;;;;;;;;;;;;;;;-142.75;100.00;77554.66;5030524;28;19917;-68
2022/06/03 01:10:49;;;;;;;;;;;;;;;-142.75;100.00;77548.75;5032129;28;20019;-69
2022/06/03 01:13:22;;;;;;;;;;;;;;;-142.75;100.00;77544.81;5031947;28;19917;-69
2022/06/03 01:15:59;;;;;;;;;;;;;;;-142.75;100.00;77546.78;5032489;28;19921;-68
2022/06/03 01:18:24;;;;;;;;;;;;;;;-142.75;100.00;77538.91;5031657;28;19917;-67
2022/06/03 01:21:25;;;;;;;;;;;;;;;-142.75;100.00;77548.75;5031981;28;19979;-68
2022/06/03 01:24:04;;;;;;;;;;;;;;;-142.75;100.00;77542.84;4989476;28;19929;-68
2022/06/03 01:26:56;;;;;;;;;;;;;;;-142.75;100.00;77531.03;5026940;28;19932;-69
2022/06/03 01:29:39;;;;;;;;;;;;;;;-142.75;100.00;77544.81;5025793;28;20002;-69
2022/06/03 01:32:17;;;;;;;;;;;;;;;-142.75;100.00;77544.81;5031601;28;19921;-69
2022/06/03 01:35:01;;;;;;;;;;;;;;;-142.75;100.00;77538.91;5032125;28;19923;-69
2022/06/03 01:37:33;;;;;;;;;;;;;;;-142.75;100.00;77534.97;5031735;28;19924;-69
2022/06/03 01:40:17;;;;;;;;;;;;;;;-142.75;100.00;77548.75;5031268;28;19925;-69
2022/06/03 01:43:05;;;;;;;;;;;;;;;-142.75;100.00;77534.97;5031418;28;19975;-68
2022/06/03 01:45:30;;;;;;;;;;;;;;;-142.75;100.00;77534.97;5031545;28;19924;-69
2022/06/03 01:48:19;;;;;;;;;;;;;;;-142.75;100.00;77536.94;5029849;28;20286;-68
2022/06/03 01:50:47;;;;;;;;;;;;;;;-142.75;100.00;77542.84;5031467;28;19917;-69
2022/06/03 01:53:12;;;;;;;;;;;;;;;-142.75;100.00;77540.88;5031450;28;19917;-69
2022/06/03 01:55:44;;;;;;;;;;;;;;;-142.75;100.00;77536.94;5031226;28;19924;-69
2022/06/03 01:58:15;;;;;;;;;;;;;;;-142.75;100.00;77534.97;5031073;28;19923;-68
2022/06/03 02:00:45;;;;;;;;;;;;;;;-142.75;100.00;77540.88;5029940;28;19964;-69
2022/06/03 02:03:10;;;;;;;;;;;;;;;-142.75;100.00;77527.09;5031167;28;20382;-69
2022/06/03 02:05:35;;;;;;;;;;;;;;;-142.75;100.00;77519.22;5031255;28;19923;-69
2022/06/03 02:08:04;;;;;;;;;;;;;;;-142.75;100.00;77525.13;5030797;28;19917;-68
2022/06/03 02:10:41;;;;;;;;;;;;;;;-142.75;100.00;77521.19;5031209;28;19917;-69
2022/06/03 02:13:07;;;;;;;;;;;;;;;-142.75;100.00;77527.09;5031085;28;19917;-69
2022/06/03 02:15:49;;;;;;;;;;;;;;;-142.75;100.00;77536.94;5029896;28;19917;-69
2022/06/03 02:18:33;;;;;;;;;;;;;;;-142.75;100.00;77536.94;5030906;28;19924;-69
2022/06/03 02:21:22;;;;;;;;;;;;;;;-142.75;100.00;77542.84;5030860;28;19983;-69
2022/06/03 02:23:49;;;;;;;;;;;;;;;-142.75;100.00;77544.81;5030305;28;20394;-69
2022/06/03 02:26:44;;;;;;;;;;;;;;;-142.75;100.00;77550.72;5031096;28;20036;-69
2022/06/03 02:32:32;;;;;;;;;;;;;;;-142.75;100.00;77546.78;5031032;28;19924;-69
2022/06/03 02:34:57;;;;;;;;;;;;;;;-142.75;100.00;77542.84;5032746;28;19962;-69
2022/06/03 02:37:31;;;;;;;;;;;;;;;-142.75;100.00;77542.84;5035031;28;20363;-69
2022/06/03 02:40:18;;;;;;;;;;;;;;;-142.75;100.00;77542.84;5034488;28;19917;-69
2022/06/03 02:43:02;;;;;;;;;;;;;;;-142.75;100.00;77534.97;5034917;28;19952;-69
2022/06/03 02:45:59;;;;;;;;;;;;;;;-142.75;100.00;77527.09;5034774;28;20407;-69
2022/06/03 02:48:25;;;;;;;;;;;;;;;-142.75;100.00;77533.00;5011518;28;20015;-69
2022/06/03 02:50:59;;;;;;;;;;;;;;;-142.75;100.00;77536.94;5034801;28;20391;-68
2022/06/03 02:53:45;;;;;;;;;;;;;;;-142.75;100.00;77534.97;5034733;28;19924;-69
2022/06/03 02:56:29;;;;;;;;;;;;;;;-142.75;100.00;77536.94;5033136;28;20375;-68
2022/06/03 02:59:08;;;;;;;;;;;;;;;-142.75;100.00;77531.03;5032998;28;19924;-69
2022/06/03 03:01:53;;;;;;;;;;;;;;;-142.75;100.00;77523.16;5034521;28;20420;-69
2022/06/03 03:04:27;;;;;;;;;;;;;;;-142.75;100.00;77529.06;5033808;28;19923;-69
2022/06/03 03:07:04;;;;;;;;;;;;;;;-142.75;100.00;77527.09;5034677;28;20383;-69
2022/06/03 03:09:45;;;;;;;;;;;;;;;-142.75;100.00;77531.03;5034046;28;19920;-68
2022/06/03 03:12:22;;;;;;;;;;;;;;;-142.75;100.00;77529.06;5034204;28;20310;-68
2022/06/03 03:15:10;;;;;;;;;;;;;;;-142.75;100.00;77538.91;5034266;28;19917;-69
2022/06/03 03:17:54;;;;;;;;;;;;;;;-142.75;100.00;77542.84;5034206;28;19924;-68
2022/06/03 03:20:25;;;;;;;;;;;;;;;-142.75;100.00;77540.88;5032774;28;19921;-68
2022/06/03 03:23:09;;;;;;;;;;;;;;;-142.75;100.00;77548.75;5033954;28;19970;-69
2022/06/03 03:25:53;;;;;;;;;;;;;;;-142.75;100.00;77558.59;5034217;28;19925;-68
2022/06/03 03:28:36;;;;;;;;;;;;;;;-142.75;100.00;77556.63;5033716;28;20405;-69
2022/06/03 03:31:02;;;;;;;;;;;;;;;-142.75;100.00;77554.66;5032626;28;20345;-69
2022/06/03 03:33:38;;;;;;;;;;;;;;;-142.75;100.00;77558.59;5033802;28;19978;-69
2022/06/03 03:36:33;;;;;;;;;;;;;;;-142.75;100.00;77558.59;5033965;28;19925;-69
2022/06/03 03:39:14;;;;;;;;;;;;;;;-142.75;100.00;77564.50;5033582;28;19917;-69
2022/06/03 03:41:54;;;;;;;;;;;;;;;-142.75;100.00;77566.47;5033578;28;19921;-68
2022/06/03 03:44:43;;;;;;;;;;;;;;;-142.75;100.00;77572.38;5033785;28;19940;-69
2022/06/03 03:47:21;;;;;;;;;;;;;;;-142.75;100.00;77572.38;5033538;28;19917;-68
2022/06/03 03:49:55;;;;;;;;;;;;;;;-142.75;100.00;77570.41;5033324;28;19917;-68
2022/06/03 03:52:40;;;;;;;;;;;;;;;-142.75;100.00;77570.41;5033446;28;19928;-68
2022/06/03 03:55:24;;;;;;;;;;;;;;;-142.75;100.00;77566.47;5033561;28;20387;-68
2022/06/03 03:57:52;;;;;;;;;;;;;;;-142.75;100.00;77568.44;5033302;28;19917;-69
2022/06/03 04:00:29;;;;;;;;;;;;;;;-142.75;100.00;77576.31;5033433;28;20350;-69
2022/06/03 04:03:23;;;;;;;;;;;;;;;-142.75;100.00;77590.09;5033268;28;20290;-69
2022/06/03 04:06:01;;;;;;;;;;;;;;;-142.75;100.00;77580.25;4996468;28;20538;-69
2022/06/03 04:08:32;;;;;;;;;;;;;;;-142.75;100.00;77590.09;5032946;28;20379;-69
2022/06/03 04:11:16;;;;;;;;;;;;;;;-142.75;100.00;77584.19;5031945;28;19924;-69
2022/06/03 04:14:11;;;;;;;;;;;;;;;-142.75;100.00;77576.31;5033094;28;20276;-69
2022/06/03 04:16:37;;;;;;;;;;;;;;;-142.75;100.00;77582.22;5031762;28;20323;-69
2022/06/03 04:19:27;;;;;;;;;;;;;;;-142.75;100.00;77574.34;5032927;28;19917;-69
2022/06/03 04:21:55;;;;;;;;;;;;;;;-142.75;100.00;77562.53;5032783;28;20017;-69
2022/06/03 04:24:39;;;;;;;;;;;;;;;-142.75;100.00;77578.28;5032987;28;19978;-69
2022/06/03 04:27:16;;;;;;;;;;;;;;;-142.75;100.00;77568.44;5031622;28;19929;-69
2022/06/03 04:30:04;;;;;;;;;;;;;;;-142.75;100.00;77556.63;5032688;28;19960;-69
2022/06/03 04:32:42;;;;;;;;;;;;;;;-142.75;100.00;77542.84;5032968;28;20000;-69
2022/06/03 04:35:26;;;;;;;;;;;;;;;-142.75;100.00;77548.75;5032720;28;19917;-69
2022/06/03 04:38:09;;;;;;;;;;;;;;;-142.75;100.00;77533.00;5031222;28;19917;-69
2022/06/03 04:40:37;;;;;;;;;;;;;;;-142.75;100.00;77527.09;5032551;28;19921;-69
2022/06/03 04:43:09;;;;;;;;;;;;;;;-142.75;100.00;77531.03;5031273;28;19917;-69
2022/06/03 04:45:52;;;;;;;;;;;;;;;-142.75;100.00;77515.28;5032653;28;19917;-68
2022/06/03 04:48:33;;;;;;;;;;;;;;;-142.75;100.00;77499.53;5032258;28;20298;-68
2022/06/03 04:51:13;;;;;;;;;;;;;;;-142.75;100.00;77491.66;5032750;28;20334;-69
2022/06/03 04:54:05;;;;;;;;;;;;;;;-142.75;100.00;77479.84;5032321;28;19917;-69
2022/06/03 04:56:30;;;;;;;;;;;;;;;-142.75;100.00;77470.00;5032049;28;19928;-69
2022/06/03 04:59:14;;;;;;;;;;;;;;;-142.75;100.00;77460.13;5031525;28;19917;-68
2022/06/03 05:01:58;;;;;;;;;;;;;;;-142.75;100.00;77456.22;5032032;28;19925;-69
2022/06/03 05:04:44;;;;;;;;;;;;;;;-142.75;100.00;77452.25;5030959;28;19967;-69
2022/06/03 05:07:16;;;;;;;;;;;;;;;-142.75;100.00;77430.59;5030787;28;19927;-68
2022/06/03 05:09:44;;;;;;;;;;;;;;;-142.75;100.00;77416.81;5031669;28;19921;-69
2022/06/03 05:12:12;;;;;;;;;;;;;;;-142.75;100.00;77405.00;5031990;28;19926;-68
2022/06/03 05:15:09;;;;;;;;;;;;;;;-142.75;100.00;77385.31;5032068;28;19921;-69
2022/06/03 05:17:34;;;;;;;;;;;;;;;-142.75;100.00;77365.63;5008966;28;19952;-69
2022/06/03 05:20:03;;;;;;;;;;;;;;;-142.75;100.00;77351.84;5031880;28;19960;-69
2022/06/03 05:22:38;;;;;;;;;;;;;;;-142.75;100.00;77334.13;5030530;28;19924;-68
2022/06/03 05:25:22;;;;;;;;;;;;;;;-142.75;100.00;77326.25;5031804;28;19917;-69
2022/06/03 05:28:02;;;;;;;;;;;;;;;-142.75;100.00;77312.47;5031710;28;20379;-68
2022/06/03 05:30:47;;;;;;;;;;;;;;;-142.75;100.00;77304.59;5031796;28;19928;-69
2022/06/03 05:33:21;;;;;;;;;;;;;;;-142.75;100.00;77298.69;5031569;28;19924;-69
2022/06/03 05:36:16;;;;;;;;;;;;;;;-142.75;100.00;77286.88;5031962;28;19971;-68
2022/06/03 05:39:00;;;;;;;;;;;;;;;-142.75;100.00;77275.06;5029984;28;20395;-69
2022/06/03 05:44:20;;;;;;;;;;;;;;;-142.75;100.00;77257.34;5031491;28;20004;-68
2022/06/03 05:46:59;;;;;;;;;;;;;;;-142.75;100.00;77235.69;5031417;28;19928;-69
2022/06/03 05:49:30;;;;;;;;;;;;;;;-142.75;100.00;77223.88;5031385;28;19963;-69
2022/06/03 05:52:01;;;;;;;;;;;;;;;-142.75;100.00;77208.13;5031482;28;20242;-68
2022/06/03 05:54:45;;;;;;;;;;;;;;;-142.75;100.00;77192.38;5030292;28;19923;-69
2022/06/03 05:57:20;;;;;;;;;;;;;;;-142.75;100.00;77184.50;5031260;28;19917;-68
2022/06/03 06:00:01;;;;;;;;;;;;;;;-142.75;100.00;77160.88;5031059;28;19917;-69
2022/06/03 06:02:29;;;;;;;;;;;;;;;-142.75;100.00;77137.25;5049828;28;19946;-69
2022/06/03 06:05:17;;;;;;;;;;;;;;;-142.75;100.00;77121.50;5051041;28;19916;-68
2022/06/03 06:08:01;;;;;;;;;;;;;;;-142.75;100.00;77119.53;5050810;28;19978;-67
2022/06/03 06:10:29;;;;;;;;;;;;;;;-142.75;100.00;77095.91;5051017;28;19917;-68
2022/06/03 06:13:01;;;;;;;;;;;;;;;-142.75;100.00;77097.88;5049676;28;19917;-69
2022/06/03 06:15:42;;;;;;;;;;;;;;;-142.75;100.00;77105.75;5051038;28;19925;-68
2022/06/03 06:18:15;;;;;;;;;;;;;;;-142.75;100.00;77091.97;5050678;28;20312;-69
2022/06/03 06:20:59;;;;;;;;;;;;;;;-142.75;100.00;77109.69;5050853;28;20328;-68
2022/06/03 06:23:43;;;;;;;;;;;;;;;-142.75;100.00;77095.91;5062217;22;19933;-69
2022/06/03 06:26:11;;;;;;;;;;;;;;;-142.75;100.00;77080.16;5009945;28;19928;-71
2022/06/03 06:28:55;;;;;;;;;;;;;;;-142.75;100.00;77064.41;5030501;28;19967;-70
2022/06/03 06:31:23;;;;;;;;;;;;;;;-142.75;100.00;77036.84;5031049;28;19917;-68
2022/06/03 06:34:04;;;;;;;;;;;;;;;-142.75;100.00;77009.28;5030905;28;19921;-68
2022/06/03 06:36:48;;;;;;;;;;;;;;;-142.75;100.00;76979.75;5011372;28;20303;-68
2022/06/03 06:39:25;;;;;;;;;;;;;;;-142.75;100.00;76954.16;4993338;28;19944;-69
2022/06/03 06:41:54;;;;;;;;;;;;;;;-142.75;100.00;76922.66;5010996;28;19925;-68
2022/06/03 06:44:25;;;;;;;;;;;;;;;-142.75;100.00;76914.78;5001653;28;19924;-68
2022/06/03 06:47:12;;;;;;;;;;;;;;;-142.75;100.00;76904.94;5013867;28;19963;-68
2022/06/03 06:49:41;;;;;;;;;;;;;;;-142.75;100.00;76867.53;5008904;28;19978;-68
2022/06/03 06:52:27;;;;;;;;;;;;;;;-142.75;100.00;76849.81;5030618;28;20390;-70
2022/06/03 06:54:56;;;;;;;;;;;;;;;-142.75;100.00;76826.19;5013184;28;20371;-68
2022/06/03 06:57:23;;;;;;;;;;;;;;;-142.75;100.00;76820.28;5009937;28;19964;-68
2022/06/03 06:59:56;;;;;;;;;;;;;;;-142.75;100.00;76826.19;5015599;28;20283;-68
2022/06/03 07:02:25;;;;;;;;;;;;;;;-142.75;100.00;76794.69;5022517;28;19966;-68
2022/06/03 07:04:56;;;;;;;;;;;;;;;-142.75;100.00;76771.09;5024233;28;20383;-68
2022/06/03 07:07:40;;;;;;;;;;;;;;;-142.75;100.00;76747.47;5012449;28;19918;-68
2022/06/03 07:10:31;;;;;;;;;;;;;;;-142.75;100.00;76747.47;5005899;28;19940;-67
2022/06/03 07:12:56;;;;;;;;;;;;;;;-142.75;100.00;76715.97;5022088;28;19917;-68
2022/06/03 07:15:25;;;;;;;;;;;;;;;-142.75;100.00;76696.28;5028162;28;19962;-68
2022/06/03 07:20:40;;;;;;;;;;;;;;;-142.75;100.00;76725.81;5010984;28;19968;-68
2022/06/03 07:23:06;;;;;;;;;;;;;;;-142.75;100.00;76735.66;5014276;28;19917;-68
2022/06/03 07:25:39;;;;;;;;;;;;;;;-142.75;100.00;76700.22;5014320;28;19924;-68
2022/06/03 07:28:23;;;;;;;;;;;;;;;-142.75;100.00;76692.34;5015477;28;19917;-68
2022/06/03 07:30:54;;;;;;;;;;;;;;;-142.75;100.00;76656.91;5014206;28;19917;-68
2022/06/03 07:33:32;;;;;;;;;;;;;;;-142.75;100.00;76631.31;5014354;28;20276;-68
2022/06/03 07:36:06;;;;;;;;;;;;;;;-142.75;100.00;76597.84;5002842;28;19917;-68
2022/06/03 07:38:37;;;;;;;;;;;;;;;-142.75;100.00;76584.06;5024162;28;19939;-71
2022/06/03 07:41:29;;;;;;;;;;;;;;;-142.75;100.00;76586.03;4995807;28;19929;-68
2022/06/03 07:43:57;;;;;;;;;;;;;;;-142.75;100.00;76613.59;5008709;28;19960;-69
2022/06/03 07:46:28;;;;;;;;;;;;;;;-142.75;100.00;76617.53;5020646;28;19917;-68
2022/06/03 07:48:54;;;;;;;;;;;;;;;-142.75;100.00;76621.47;5024624;28;20383;-69
2022/06/03 07:51:33;;;;;;;;;;;;;;;-142.75;100.00;76619.50;5019470;28;19959;-68
2022/06/03 07:54:04;;;;;;;;;;;;;;;-142.75;100.00;76588.00;5022799;28;19917;-68
2022/06/03 07:56:30;;;;;;;;;;;;;;;-142.75;100.00;76562.41;5009677;28;20393;-69
2022/06/03 07:58:58;;;;;;;;;;;;;;;-142.75;100.00;76568.31;5015477;28;19917;-68
2022/06/03 08:01:43;;;;;;;;;;;;;;;-142.75;100.00;76546.66;5015518;28;20418;-70
2022/06/03 08:04:25;;;;;;;;;;;;;;;-142.75;100.00;76528.97;5028293;28;20007;-68
2022/06/03 08:12:31;;;;;;;;;;;;;;;-142.75;100.00;76385.25;5028897;28;20298;-68
2022/06/03 08:14:57;;;;;;;;;;;;;;;-142.75;100.00;76381.31;5029483;28;19927;-69
2022/06/03 08:17:23;;;;;;;;;;;;;;;-142.75;100.00;76418.72;5019108;28;19917;-67
2022/06/03 08:19:49;;;;;;;;;;;;;;;-142.75;100.00;76410.84;5013046;28;19921;-68
2022/06/03 08:22:16;;;;;;;;;;;;;;;-142.75;100.00;76393.13;5014313;28;19925;-68
2022/06/03 08:24:51;;;;;;;;;;;;;;;-142.75;100.00;76365.56;5014579;28;20302;-68
2022/06/03 08:27:24;;;;;;;;;;;;;;;-142.75;100.00;76367.53;5017051;28;19918;-69
2022/06/03 08:29:49;;;;;;;;;;;;;;;-142.75;100.00;76326.22;5012715;28;20456;-69
2022/06/03 08:32:41;;;;;;;;;;;;;;;-142.75;100.00;76308.50;5012908;28;20024;-68
2022/06/03 08:35:07;;;;;;;;;;;;;;;-142.75;100.00;76290.78;4978431;28;20346;-67
2022/06/03 08:37:35;;;;;;;;;;;;;;;-142.75;100.00;76259.28;5018548;28;20376;-68
2022/06/03 08:40:09;;;;;;;;;;;;;;;-142.75;100.00;76243.53;5022493;28;19974;-70
2022/06/03 08:42:38;;;;;;;;;;;;;;;-142.75;96.11;76221.88;5032012;28;19928;-70
2022/06/03 08:45:08;;;;;;;;;;;;;;;-142.75;97.57;76196.31;5019938;28;19925;-69
2022/06/03 08:47:42;;;;;;;;;;;;;;;-142.75;92.35;76239.59;5017189;28;19924;-68
2022/06/03 08:50:11;;;;;;;;;;;;;;;-142.75;93.36;76223.84;5026861;28;20446;-69
2022/06/03 08:52:48;;;;;;;;;;;;;;;-142.75;86.98;76202.19;5032369;28;20263;-68
2022/06/03 08:55:24;;;;;;;;;;;;;;;-142.75;89.78;76192.38;5032343;28;19923;-68
2022/06/03 08:57:51;;;;;;;;;;;;;;;-142.75;85.89;76178.59;5019624;28;19964;-68
2022/06/03 09:00:20;;;;;;;;;;;;;;;-142.75;85.82;76164.81;5028625;28;19952;-68
2022/06/03 09:02:53;;;;;;;;;;;;;;;-142.75;87.07;76145.13;5029623;28;19925;-68
2022/06/03 09:05:21;;;;;;;;;;;;;;;-142.75;85.30;76151.03;5013801;28;19967;-68
2022/06/03 09:07:50;;;;;;;;;;;;;;;-142.75;82.59;76143.16;5022920;28;20310;-69
2022/06/03 09:10:28;;;;;;;;;;;;;;;-142.75;83.50;76097.88;5031881;28;19940;-68
2022/06/03 09:13:02;;;;;;;;;;;;;;;-142.75;79.36;76109.69;5032526;28;19917;-69
2022/06/03 09:15:33;;;;;;;;;;;;;;;-142.75;80.07;76105.75;5032008;28;19917;-69
2022/06/03 09:18:03;;;;;;;;;;;;;;;-142.75;79.89;76105.75;5031738;28;19917;-71
2022/06/03 09:20:34;;;;;;;;;;;;;;;-142.75;81.49;76072.31;5013877;28;19921;-70
2022/06/03 09:23:01;;;;;;;;;;;;;;;-142.75;79.17;76058.53;5012044;28;19964;-69
2022/06/03 09:25:31;;;;;;;;;;;;;;;-142.75;76.11;76097.88;5012164;28;20008;-69
2022/06/03 09:27:56;;;;;;;;;;;;;;;-142.75;75.67;76139.22;5011866;28;19921;-69
2022/06/03 09:30:27;;;;;;;;;;;;;;;-142.75;76.07;76111.66;5012149;28;20035;-71
2022/06/03 09:32:54;;;;;;;;;;;;;;;-142.75;80.93;76062.47;5011980;28;20012;-69
2022/06/03 09:35:21;;;;;;;;;;;;;;;-142.75;79.50;76034.91;5011969;28;19917;-70
2022/06/03 09:37:49;;;;;;;;;;;;;;;-142.75;77.42;76034.91;5011699;28;19918;-67
2022/06/03 09:40:16;;;;;;;;;;;;;;;-142.75;75.43;75995.53;5014562;28;19917;-69
2022/06/03 09:42:46;;;;;;;;;;;;;;;-142.75;76.30;75977.81;5011534;28;20027;-69
2022/06/03 09:45:16;;;;;;;;;;;;;;;-142.75;75.79;75975.84;5011646;28;19924;-69
2022/06/03 09:47:42;;;;;;;;;;;;;;;-142.75;70.58;75954.22;4999854;28;19917;-71
2022/06/03 09:50:08;;;;;;;;;;;;;;;-142.75;71.99;75954.22;5012020;28;19921;-69
2022/06/03 09:52:33;;;;;;;;;;;;;;;-142.75;70.55;75971.91;5019927;28;19943;-68
2022/06/03 09:55:01;;;;;;;;;;;;;;;-142.75;70.65;75967.97;5027702;28;19917;-69
2022/06/03 09:57:30;;;;;;;;;;;;;;;-142.75;69.78;75944.38;5015951;28;19939;-69
2022/06/03 10:00:03;;;;;;;;;;;;;;;-142.75;69.28;75969.94;5014300;28;19917;-70
2022/06/03 10:02:28;;;;;;;;;;;;;;;-142.75;69.32;76003.41;5031080;28;20010;-69
2022/06/03 10:04:54;;;;;;;;;;;;;;;-142.75;72.17;75958.16;5031227;28;19961;-71
2022/06/03 10:07:20;;;;;;;;;;;;;;;-142.75;66.85;75964.03;5029045;28;20072;-69
2022/06/03 10:12:53;;;;;;;;;;;;;;;-142.75;69.40;75928.63;5021582;28;19972;-69
2022/06/03 10:15:38;;;;;;;;;;;;;;;-142.75;66.35;75901.06;5031691;28;19917;-70
2022/06/03 10:18:07;;;;;;;;;;;;;;;-142.75;70.08;75865.63;5013217;28;19970;-69
2022/06/03 10:20:35;;;;;;;;;;;;;;;-142.75;70.15;75818.41;5031029;28;20390;-69
2022/06/03 10:23:05;;;;;;;;;;;;;;;-142.75;63.89;75826.28;5030979;28;20152;-69
2022/06/03 10:25:31;;;;;;;;;;;;;;;-142.75;63.19;75824.31;5031023;28;20299;-69
2022/06/03 10:28:01;;;;;;;;;;;;;;;-142.75;65.09;75845.97;5026810;28;19932;-69
2022/06/03 10:30:28;;;;;;;;;;;;;;;-142.75;64.87;75853.84;5017210;28;19953;-69
2022/06/03 10:32:53;;;;;;;;;;;;;;;-142.75;64.69;75838.09;5024302;28;19917;-69
2022/06/03 10:35:21;;;;;;;;;;;;;;;-142.75;65.53;75806.59;5013261;28;19964;-69
2022/06/03 10:37:54;;;;;;;;;;;;;;;-142.75;61.98;75796.75;5025065;28;20302;-69
2022/06/03 10:40:20;;;;;;;;;;;;;;;-142.75;62.01;75840.06;5019271;28;19917;-69
2022/06/03 10:42:47;;;;;;;;;;;;;;;-142.75;61.86;75806.59;5030664;28;19924;-69
2022/06/03 10:45:12;;;;;;;;;;;;;;;-142.75;63.86;75812.50;5013169;28;20371;-69
2022/06/03 10:47:39;;;;;;;;;;;;;;;-142.75;62.97;75771.16;5022558;28;19928;-69
2022/06/03 10:50:08;;;;;;;;;;;;;;;-142.75;62.75;75755.44;5014277;28;19917;-69
2022/06/03 11:01:07;;;;;;;;;;;;;;;-142.75;58.73;75779.03;5027377;28;20436;-67
2022/06/03 11:03:33;;;;;;;;;;;;;;;-142.75;57.04;75747.56;5014130;28;20399;-69
2022/06/03 11:06:06;;;;;;;;;;;;;;;-142.75;58.04;75790.84;5017660;28;19971;-69
2022/06/03 11:08:47;;;;;;;;;;;;;;;-142.75;57.76;75814.47;5015866;28;20027;-68
2022/06/03 11:11:12;;;;;;;;;;;;;;;-142.75;59.53;75808.56;5023898;28;19917;-68
2022/06/03 11:13:41;;;;;;;;;;;;;;;-142.75;62.15;75808.56;5016460;28;20302;-67
2022/06/03 11:16:19;;;;;;;;;;;;;;;-142.75;60.11;75792.81;5016716;28;20374;-68
2022/06/03 11:18:45;;;;;;;;;;;;;;;-142.75;58.10;75826.28;5014292;28;19921;-68
2022/06/03 11:21:22;;;;;;;;;;;;;;;-142.75;58.57;75844.00;5014349;28;20026;-68
2022/06/03 11:23:48;;;;;;;;;;;;;;;-142.75;61.42;75775.09;5014331;28;19921;-67
2022/06/03 11:26:13;;;;;;;;;;;;;;;-142.75;57.28;75747.56;5014397;28;20367;-67
2022/06/03 11:28:43;;;;;;;;;;;;;;;-142.75;54.32;75794.78;5014015;28;20406;-68
2022/06/03 11:31:21;;;;;;;;;;;;;;;-142.75;58.99;75792.81;5026056;28;20365;-68
2022/06/03 11:34:04;;;;;;;;;;;;;;;-142.75;55.82;75749.53;5033871;28;19917;-70
2022/06/03 11:36:40;;;;;;;;;;;;;;;-142.75;55.97;75686.53;5033697;28;19924;-68
2022/06/03 11:39:08;;;;;;;;;;;;;;;-142.75;52.18;75684.56;5031036;28;19927;-68
2022/06/03 11:41:33;;;;;;;;;;;;;;;-142.75;53.28;75645.22;5014169;28;19922;-69
2022/06/03 11:44:20;;;;;;;;;;;;;;;-142.75;53.34;75633.41;5014134;28;19929;-69
2022/06/03 11:46:55;;;;;;;;;;;;;;;-142.75;55.10;75698.34;5014098;28;19924;-69
2022/06/03 11:49:21;;;;;;;;;;;;;;;-142.75;55.12;75714.09;5014017;28;19964;-69
2022/06/03 11:51:47;;;;;;;;;;;;;;;-142.75;54.44;75767.22;5014160;28;19972;-69
2022/06/03 11:54:15;;;;;;;;;;;;;;;-142.75;57.10;75788.88;5014076;28;19917;-67
2022/06/03 11:56:41;;;;;;;;;;;;;;;-142.75;59.52;75798.72;5013971;28;19917;-69
2022/06/03 11:59:12;;;;;;;;;;;;;;;-142.75;60.56;75820.38;5030146;28;19925;-69
2022/06/03 12:01:49;;;;;;;;;;;;;;;-142.75;58.86;75834.16;5015561;28;19976;-70
2022/06/03 12:04:33;;;;;;;;;;;;;;;-142.75;59.89;75838.09;5033573;28;20015;-69
2022/06/03 12:06:58;;;;;;;;;;;;;;;-142.75;60.59;75910.91;5033666;28;19921;-69
2022/06/03 12:09:23;;;;;;;;;;;;;;;-142.75;61.37;75905.00;5015553;28;19923;-69
2022/06/03 12:14:44;;;;;;;;;;;;;;;-142.75;61.05;75857.78;5022673;28;19980;-72
2022/06/03 12:17:09;;;;;;;;;;;;;;;-142.75;58.63;75838.09;5013548;28;19961;-70
2022/06/03 12:19:42;;;;;;;;;;;;;;;-142.75;60.16;75830.22;5013201;28;20024;-68
2022/06/03 12:22:22;;;;;;;;;;;;;;;-142.75;60.79;75759.38;5013122;28;20248;-69
2022/06/03 12:24:48;;;;;;;;;;;;;;;-142.75;59.96;75735.75;5034197;23;20032;-68
2022/06/03 12:27:16;;;;;;;;;;;;;;;-142.75;57.54;75710.16;4994149;28;19925;-68
2022/06/03 12:29:45;;;;;;;;;;;;;;;-142.75;56.46;75674.72;5012777;28;20319;-68
2022/06/03 12:32:13;;;;;;;;;;;;;;;-142.75;57.94;75666.88;5013020;28;19956;-69
2022/06/03 12:34:38;;;;;;;;;;;;;;;-142.75;57.15;75651.13;5012993;28;19917;-68
2022/06/03 12:37:24;;;;;;;;;;;;;;;-142.75;60.95;75688.50;5032213;28;20280;-68
2022/06/03 12:39:58;;;;;;;;;;;;;;;-142.75;55.93;75765.25;5032451;28;19975;-69
2022/06/03 12:42:26;;;;;;;;;;;;;;;-142.75;58.76;75798.72;5032608;28;19929;-68
2022/06/03 12:44:51;;;;;;;;;;;;;;;-142.75;57.74;75810.53;5014771;28;19924;-68
2022/06/03 12:47:27;;;;;;;;;;;;;;;-142.75;58.04;75794.78;5032581;28;19925;-68
2022/06/03 12:49:54;;;;;;;;;;;;;;;-142.75;57.26;75761.34;5032224;28;19917;-69
2022/06/03 12:52:22;;;;;;;;;;;;;;;-142.75;56.54;75737.72;5032054;28;19932;-70
2022/06/03 12:54:50;;;;;;;;;;;;;;;-142.75;61.04;75712.13;5014679;28;19917;-68
2022/06/03 12:57:21;;;;;;;;;;;;;;;-142.75;55.90;75690.47;5032320;28;19927;-70
2022/06/03 12:59:48;;;;;;;;;;;;;;;-142.75;57.11;75659.00;5032128;28;19968;-68
2022/06/03 13:02:16;;;;;;;;;;;;;;;-142.75;57.13;75670.81;5032163;28;19929;-69
2022/06/03 13:04:53;;;;;;;;;;;;;;;-142.75;53.63;75720.00;5032029;28;19921;-69
2022/06/03 13:07:28;;;;;;;;;;;;;;;-142.75;55.39;75784.94;5014291;28;19917;-70
2022/06/03 13:10:02;;;;;;;;;;;;;;;-142.75;56.88;75806.59;5031979;28;19917;-69
2022/06/03 13:12:28;;;;;;;;;;;;;;;-142.75;59.42;75826.28;5032060;28;19960;-69
2022/06/03 13:14:53;;;;;;;;;;;;;;;-142.75;61.30;75794.78;5031849;28;20004;-69
2022/06/03 13:17:37;;;;;;;;;;;;;;;-142.75;57.79;75769.19;5032044;28;20027;-69
2022/06/03 13:20:03;;;;;;;;;;;;;;;-142.75;56.33;75743.63;5031242;28;19917;-69
2022/06/03 13:22:29;;;;;;;;;;;;;;;-142.75;56.50;75747.56;5031947;28;20020;-69
2022/06/03 13:25:13;;;;;;;;;;;;;;;-142.75;56.87;75755.44;5032067;28;20287;-69
2022/06/03 13:27:38;;;;;;;;;;;;;;;-142.75;56.01;75727.88;5032122;28;19920;-69